Montgomery, Iowa
Current Conditions -  °F | °C
As of 7:53 AM on Wednesday 28 Jan 2015 (Local Time) from KMJQ Reporting Station
Haze Haze  
Wind Chill: 20°   Ceiling: 300
Heat Index: 32°   Visibility: 3mi
Dew Point: 30°   Wind: 18mph
Humidity: 93%   Direction: 160°SSE
Pressure: 29.88"   Gusts: 23mph
Location:  43.4265°N, 95.1547°W
Report Text: KMJQ 281353Z AUTO 16016G20KT 3SM BR OVC003 00/M01 A2988 RMK AO2
Loading
Personal Weather Stations






























Interactive Weather Map New forecast layout! Learn more

10-Day Weather Forecast

Advertisements
Track Severe Weather on mobile